createdAt,value
2022-12-29T00:01:29.914Z,99782.12
2022-12-29T00:06:33.427Z,99768.89
2022-12-29T00:11:36.632Z,99766.38
2022-12-29T00:16:45.788Z,99764.53
2022-12-29T00:22:08.035Z,99771.90
2022-12-29T00:27:32.349Z,99764.79
2022-12-29T00:32:55.926Z,99766.86
2022-12-29T00:38:23.716Z,99757.90
2022-12-29T00:43:45.768Z,99759.88
2022-12-29T00:49:07.500Z,99757.02
2022-12-29T00:54:11.126Z,99755.19
2022-12-29T00:59:14.532Z,99751.21
2022-12-29T01:04:17.835Z,99753.15
2022-12-29T01:09:40.709Z,99753.57
2022-12-29T01:14:43.917Z,99747.75
2022-12-29T01:19:47.843Z,99744.91
2022-12-29T01:24:51.358Z,99739.08
2022-12-29T01:29:54.581Z,99733.84
2022-12-29T01:34:57.670Z,99726.45
2022-12-29T01:40:00.984Z,99720.27
2022-12-29T01:45:10.624Z,99710.63
2022-12-29T01:50:29.740Z,99705.33
2022-12-29T01:55:39.279Z,99703.99
2022-12-29T02:00:42.460Z,99701.00
2022-12-29T02:06:00.855Z,99698.61
2022-12-29T02:11:04.575Z,99699.64
2022-12-29T02:16:20.192Z,99699.58
2022-12-29T02:21:49.902Z,99698.66
2022-12-29T02:27:18.403Z,99700.48
2022-12-29T02:32:46.693Z,99695.11
2022-12-29T02:38:20.645Z,99688.31
2022-12-29T02:43:42.670Z,99675.31
2022-12-29T02:48:56.020Z,99664.05
2022-12-29T02:54:19.196Z,99664.38
2022-12-29T02:59:23.571Z,99678.48
2022-12-29T03:04:56.645Z,99677.93
2022-12-29T03:09:59.740Z,99674.11
2022-12-29T03:15:30.291Z,99673.77
2022-12-29T03:20:59.510Z,99670.34
2022-12-29T03:26:08.210Z,99656.77
2022-12-29T03:31:13.667Z,99653.73
2022-12-29T03:36:27.871Z,99664.92
2022-12-29T03:41:34.342Z,99659.94
2022-12-29T03:46:37.720Z,99640.92
2022-12-29T03:51:40.975Z,99624.23
2022-12-29T03:56:44.195Z,99620.14
2022-12-29T04:01:47.773Z,99638.42
2022-12-29T04:06:51.112Z,99645.70
2022-12-29T04:11:54.114Z,99631.71
2022-12-29T04:16:57.337Z,99632.62
2022-12-29T04:22:00.743Z,99619.50
2022-12-29T04:27:03.944Z,99611.80
2022-12-29T04:32:07.357Z,99601.35
2022-12-29T04:37:10.769Z,99597.17
2022-12-29T04:42:13.996Z,99600.04
2022-12-29T04:47:17.599Z,99604.55
2022-12-29T04:52:22.141Z,99609.55
2022-12-29T04:57:25.339Z,99610.80
2022-12-29T05:02:28.968Z,99608.55
2022-12-29T05:07:34.578Z,99603.96
2022-12-29T05:12:39.374Z,99598.17
2022-12-29T05:17:43.498Z,99594.45
2022-12-29T05:22:46.815Z,99589.06
2022-12-29T05:27:50.225Z,99584.15
2022-12-29T05:32:53.531Z,99576.50
2022-12-29T05:37:56.852Z,99567.97
2022-12-29T05:43:00.173Z,99559.09
2022-12-29T05:48:03.571Z,99563.70
2022-12-29T05:53:07.085Z,99568.16
2022-12-29T05:58:10.907Z,99571.45
2022-12-29T06:03:14.297Z,99562.11
2022-12-29T06:08:17.728Z,99561.23
2022-12-29T06:13:20.942Z,99551.86
2022-12-29T06:18:24.351Z,99546.52
2022-12-29T06:23:28.379Z,99548.23
2022-12-29T06:28:32.100Z,99541.72
2022-12-29T06:33:35.715Z,99533.90
2022-12-29T06:38:39.029Z,99526.20
2022-12-29T06:43:42.243Z,99519.55
2022-12-29T06:48:45.342Z,99520.05
2022-12-29T06:53:48.594Z,99516.89
2022-12-29T06:58:51.880Z,99519.23
2022-12-29T07:03:55.065Z,99522.36
2022-12-29T07:08:58.632Z,99524.47
2022-12-29T07:14:02.206Z,99523.63
2022-12-29T07:19:05.816Z,99527.42
2022-12-29T07:24:10.255Z,99524.86
2022-12-29T07:29:13.773Z,99526.89
2022-12-29T07:34:17.298Z,99532.86
2022-12-29T07:39:20.398Z,99532.64
2022-12-29T07:44:23.599Z,99525.63
2022-12-29T07:49:26.812Z,99517.08
2022-12-29T07:54:30.119Z,99522.02
2022-12-29T07:59:33.955Z,99533.34
2022-12-29T08:04:37.149Z,99546.41
2022-12-29T08:09:40.356Z,99558.64
2022-12-29T08:14:43.668Z,99549.14
2022-12-29T08:19:46.695Z,99550.31
2022-12-29T08:24:50.183Z,99540.27
2022-12-29T08:29:53.603Z,99533.96
2022-12-29T08:34:56.940Z,99545.90
2022-12-29T08:40:01.256Z,99543.95
2022-12-29T08:45:06.236Z,99544.80
2022-12-29T08:50:10.120Z,99535.48
2022-12-29T08:55:14.355Z,99541.84
2022-12-29T09:00:18.226Z,99540.80
2022-12-29T09:05:21.788Z,99540.13
2022-12-29T09:10:24.796Z,99538.41
2022-12-29T09:15:28.072Z,99521.56
2022-12-29T09:20:31.331Z,99518.00
2022-12-29T09:25:34.876Z,99508.48
2022-12-29T09:30:38.678Z,99520.95
2022-12-29T09:35:46.574Z,99522.20
2022-12-29T09:40:59.547Z,99520.23
2022-12-29T09:46:08.891Z,99516.55
2022-12-29T09:51:17.086Z,99506.23
2022-12-29T09:56:23.283Z,99495.13
2022-12-29T10:01:47.739Z,99494.52
2022-12-29T10:07:29.685Z,99492.65
2022-12-29T10:13:18.152Z,99493.92
2022-12-29T10:18:57.300Z,99494.76
2022-12-29T10:24:03.583Z,99480.00
2022-12-29T10:29:29.112Z,99465.89
2022-12-29T10:34:35.642Z,99464.19
2022-12-29T10:39:46.637Z,99450.00
2022-12-29T10:44:49.893Z,99453.09
2022-12-29T10:49:53.220Z,99453.13
2022-12-29T10:55:02.155Z,99451.30
2022-12-29T11:00:21.772Z,99440.98
2022-12-29T11:05:40.768Z,99439.30
2022-12-29T11:10:45.472Z,99442.90
2022-12-29T11:15:51.253Z,99451.11
2022-12-29T11:21:00.528Z,99453.30
2022-12-29T11:26:25.339Z,99455.29
2022-12-29T11:31:30.893Z,99446.23
2022-12-29T11:36:37.097Z,99435.61
2022-12-29T11:41:40.655Z,99433.27
2022-12-29T11:46:49.766Z,99428.64
2022-12-29T11:51:58.544Z,99431.71
2022-12-29T11:57:15.972Z,99435.93
2022-12-29T12:02:42.149Z,99438.42
2022-12-29T12:07:51.987Z,99431.99
2022-12-29T12:13:02.371Z,99432.98
2022-12-29T12:18:20.319Z,99425.30
2022-12-29T12:23:33.150Z,99413.76
2022-12-29T12:28:41.377Z,99407.41
2022-12-29T12:33:50.938Z,99396.55
2022-12-29T12:39:00.648Z,99405.89
2022-12-29T12:44:22.883Z,99407.33
2022-12-29T12:50:00.462Z,99406.63
2022-12-29T12:55:31.935Z,99411.04
2022-12-29T13:00:59.829Z,99405.54
2022-12-29T13:06:41.015Z,99405.70
2022-12-29T13:11:51.907Z,99413.30
2022-12-29T13:17:40.168Z,99423.00
2022-12-29T13:22:58.037Z,99425.48
2022-12-29T13:28:13.315Z,99426.07
2022-12-29T13:33:22.914Z,99424.23
2022-12-29T13:38:40.417Z,99416.95
2022-12-29T13:43:48.141Z,99421.20
2022-12-29T13:48:56.670Z,99422.35
2022-12-29T13:54:41.545Z,99421.06
2022-12-29T13:59:56.017Z,99420.09
2022-12-29T14:05:06.305Z,99420.41
2022-12-29T14:10:34.687Z,99409.92
2022-12-29T14:15:45.957Z,99412.02
2022-12-29T14:21:20.275Z,99416.34
2022-12-29T14:26:29.989Z,99418.66
2022-12-29T14:31:33.885Z,99422.23
2022-12-29T14:36:54.932Z,99424.57
2022-12-29T14:42:02.354Z,99431.16
2022-12-29T14:47:09.707Z,99424.14
2022-12-29T14:52:29.856Z,99420.45
2022-12-29T14:57:41.664Z,99425.64
2022-12-29T15:02:50.465Z,99428.79
2022-12-29T15:07:57.888Z,99427.78
2022-12-29T15:13:06.454Z,99431.11
2022-12-29T15:18:26.405Z,99434.66
2022-12-29T15:23:31.815Z,99434.14
2022-12-29T15:28:56.216Z,99427.00
2022-12-29T15:34:13.824Z,99425.96
2022-12-29T15:39:22.399Z,99432.41
2022-12-29T15:44:39.007Z,99432.84
2022-12-29T15:49:48.869Z,99428.55
2022-12-29T15:54:55.153Z,99420.38
2022-12-29T15:59:58.774Z,99419.46
2022-12-29T16:05:17.147Z,99420.58
2022-12-29T16:10:31.817Z,99427.16
2022-12-29T16:15:36.558Z,99434.83
2022-12-29T16:20:42.722Z,99429.85
2022-12-29T16:25:46.766Z,99431.70
2022-12-29T16:31:04.433Z,99432.32
2022-12-29T16:36:32.334Z,99431.38
2022-12-29T16:41:35.706Z,99436.60
2022-12-29T16:46:46.999Z,99436.38
2022-12-29T16:51:51.848Z,99438.52
2022-12-29T16:56:56.489Z,99441.50
2022-12-29T17:02:02.609Z,99443.59
2022-12-29T17:07:18.854Z,99444.81
2022-12-29T17:12:26.593Z,99456.65
2022-12-29T17:17:47.211Z,99452.80
2022-12-29T17:22:53.595Z,99452.44
2022-12-29T17:28:00.973Z,99449.98
2022-12-29T17:33:14.799Z,99442.66
2022-12-29T17:38:30.121Z,99447.59
2022-12-29T17:43:37.054Z,99450.46
2022-12-29T17:48:40.559Z,99444.23
2022-12-29T17:53:43.869Z,99447.70
2022-12-29T17:58:48.186Z,99448.34
2022-12-29T18:03:51.456Z,99444.83
2022-12-29T18:08:55.336Z,99450.91
2022-12-29T18:13:58.860Z,99455.51
2022-12-29T18:19:03.090Z,99473.52
2022-12-29T18:24:06.898Z,99470.85
2022-12-29T18:29:10.023Z,99480.44
2022-12-29T18:34:14.681Z,99486.68
2022-12-29T18:39:17.764Z,99493.16
2022-12-29T18:44:21.891Z,99502.38
2022-12-29T18:49:25.928Z,99504.64
2022-12-29T18:54:32.416Z,99504.84
2022-12-29T18:59:35.818Z,99497.92
2022-12-29T19:04:39.378Z,99502.70
2022-12-29T19:09:42.850Z,99512.92
2022-12-29T19:14:46.371Z,99499.09
2022-12-29T19:19:50.088Z,99492.44
2022-12-29T19:24:59.593Z,99494.86
2022-12-29T19:30:05.280Z,99499.21
2022-12-29T19:35:13.795Z,99503.41
2022-12-29T19:40:20.787Z,99506.95
2022-12-29T19:45:24.871Z,99506.83
2022-12-29T19:50:29.817Z,99509.59
2022-12-29T19:55:33.535Z,99506.77
2022-12-29T20:00:48.489Z,99511.83
2022-12-29T20:05:53.723Z,99519.00
2022-12-29T20:11:02.751Z,99520.10
2022-12-29T20:16:11.468Z,99520.05
2022-12-29T20:21:21.459Z,99523.84
2022-12-29T20:26:28.317Z,99526.98
2022-12-29T20:31:35.615Z,99525.86
2022-12-29T20:36:46.798Z,99527.20
2022-12-29T20:41:50.457Z,99528.77
2022-12-29T20:46:53.812Z,99524.69
2022-12-29T20:52:06.296Z,99515.27
2022-12-29T20:57:10.273Z,99517.27
2022-12-29T21:02:21.087Z,99518.91
2022-12-29T21:07:24.725Z,99516.73
2022-12-29T21:12:29.761Z,99514.81
2022-12-29T21:17:32.973Z,99524.02
2022-12-29T21:22:38.143Z,99526.11
2022-12-29T21:27:45.126Z,99529.85
2022-12-29T21:32:49.256Z,99531.78
2022-12-29T21:37:54.121Z,99530.59
2022-12-29T21:42:59.390Z,99528.06
2022-12-29T21:48:25.047Z,99532.81
2022-12-29T21:53:40.998Z,99533.52
2022-12-29T21:59:06.230Z,99532.97
2022-12-29T22:04:34.625Z,99529.55
2022-12-29T22:09:57.082Z,99525.92
2022-12-29T22:15:00.297Z,99526.67
2022-12-29T22:20:04.216Z,99530.27
2022-12-29T22:25:09.680Z,99538.84
2022-12-29T22:30:16.378Z,99541.35
2022-12-29T22:35:19.681Z,99547.88
2022-12-29T22:40:23.300Z,99549.90
2022-12-29T22:45:26.813Z,99551.67
2022-12-29T22:50:30.021Z,99552.73
2022-12-29T22:55:33.738Z,99559.08
2022-12-29T23:00:37.870Z,99563.81
2022-12-29T23:05:41.487Z,99567.17
2022-12-29T23:10:44.805Z,99572.91
2022-12-29T23:15:48.693Z,99578.35
2022-12-29T23:20:53.369Z,99586.95
2022-12-29T23:25:56.983Z,99587.59
2022-12-29T23:31:00.189Z,99586.73
2022-12-29T23:36:04.321Z,99580.44
2022-12-29T23:41:08.267Z,99574.05
2022-12-29T23:46:15.217Z,99579.84
2022-12-29T23:51:18.859Z,99585.27
2022-12-29T23:56:23.504Z,99590.57
